地図

経路データ

SID SEASON NUMBER BASIN SUBBASIN NAME ISO_TIME NATURE LAT LON WMO_WIND WMO_PRES WMO_AGENCY TRACK_TYPE DIST2LAND LANDFALL IFLAG USA_AGENCY USA_ATCF_ID USA_LAT USA_LON USA_RECORD USA_STATUS USA_WIND USA_PRES USA_SSHS USA_R34_NE USA_R34_SE USA_R34_SW USA_R34_NW USA_R50_NE USA_R50_SE USA_R50_SW USA_R50_NW USA_R64_NE USA_R64_SE USA_R64_SW USA_R64_NW USA_POCI USA_ROCI USA_RMW USA_EYE TOKYO_LAT TOKYO_LON TOKYO_GRADE TOKYO_WIND TOKYO_PRES TOKYO_R50_DIR TOKYO_R50_LONG TOKYO_R50_SHORT TOKYO_R30_DIR TOKYO_R30_LONG TOKYO_R30_SHORT TOKYO_LAND CMA_LAT CMA_LON CMA_CAT CMA_WIND CMA_PRES HKO_LAT HKO_LON HKO_CAT HKO_WIND HKO_PRES NEWDELHI_LAT NEWDELHI_LON NEWDELHI_GRADE NEWDELHI_WIND NEWDELHI_PRES NEWDELHI_CI NEWDELHI_DP NEWDELHI_POCI REUNION_LAT REUNION_LON REUNION_TYPE REUNION_WIND REUNION_PRES REUNION_TNUM REUNION_CI REUNION_RMW REUNION_R34_NE REUNION_R34_SE REUNION_R34_SW REUNION_R34_NW REUNION_R50_NE REUNION_R50_SE REUNION_R50_SW REUNION_R50_NW REUNION_R64_NE REUNION_R64_SE REUNION_R64_SW REUNION_R64_NW BOM_LAT BOM_LON BOM_TYPE BOM_WIND BOM_PRES BOM_TNUM BOM_CI BOM_RMW BOM_R34_NE BOM_R34_SE BOM_R34_SW BOM_R34_NW BOM_R50_NE BOM_R50_SE BOM_R50_SW BOM_R50_NW BOM_R64_NE BOM_R64_SE BOM_R64_SW BOM_R64_NW BOM_ROCI BOM_POCI BOM_EYE BOM_POS_METHOD BOM_PRES_METHOD NADI_LAT NADI_LON NADI_CAT NADI_WIND NADI_PRES WELLINGTON_LAT WELLINGTON_LON WELLINGTON_WIND WELLINGTON_PRES DS824_LAT DS824_LON DS824_STAGE DS824_WIND DS824_PRES TD9636_LAT TD9636_LON TD9636_STAGE TD9636_WIND TD9636_PRES TD9635_LAT TD9635_LON TD9635_WIND TD9635_PRES TD9635_ROCI NEUMANN_LAT NEUMANN_LON NEUMANN_CLASS NEUMANN_WIND NEUMANN_PRES MLC_LAT MLC_LON MLC_CLASS MLC_WIND MLC_PRES USA_GUST BOM_GUST BOM_GUST_PER REUNION_GUST REUNION_GUST_PER USA_SEAHGT USA_SEARAD_NE USA_SEARAD_SE USA_SEARAD_SW USA_SEARAD_NW STORM_SPEED STORM_DIR
1926226N18125 1926 32 WP MM NOT_NAMED 1926-08-13 22:00:00 NR 17.6000 125.200 main 294 283 __________O___ -1 17.6000 125.200 4 11 332
1926226N18125 1926 32 WP MM NOT_NAMED 1926-08-14 00:00:00 NR 17.9250 125.017 main 283 253 __________P___ -1 17.9250 125.017 4 11 332
1926226N18125 1926 32 WP MM NOT_NAMED 1926-08-14 03:00:00 NR 18.4154 124.748 main 253 236 __________P___ -1 18.4154 124.748 4 11 333
1926226N18125 1926 32 WP MM NOT_NAMED 1926-08-14 06:00:00 NR 18.9139 124.495 main 238 231 __________P___ -1 18.9139 124.495 4 11 336
1926226N18125 1926 32 WP MM NOT_NAMED 1926-08-14 09:00:00 NR 19.4256 124.268 main 238 234 __________P___ -1 19.4256 124.268 4 11 338
1926226N18125 1926 32 WP MM NOT_NAMED 1926-08-14 10:00:00 NR 19.6000 124.200 main 240 238 __________O___ -1 19.6000 124.200 4 11 341
1926226N18125 1926 32 WP MM NOT_NAMED 1926-08-14 12:00:00 NR 19.9551 124.077 main 260 252 __________P___ -1 19.9551 124.077 4 11 344
1926226N18125 1926 32 WP MM NOT_NAMED 1926-08-14 15:00:00 NR 20.5006 123.925 main 288 288 __________P___ -1 20.5006 123.925 4 11 347
1926226N18125 1926 32 WP MM NOT_NAMED 1926-08-14 18:00:00 NR 21.0557 123.808 main 313 289 __________P___ -1 21.0557 123.808 4 11 350
1926226N18125 1926 32 WP MM NOT_NAMED 1926-08-14 21:00:00 NR 21.6142 123.722 main 289 277 __________P___ -1 21.6142 123.722 4 11 353
1926226N18125 1926 32 WP MM NOT_NAMED 1926-08-14 22:00:00 NR 21.8000 123.700 main 277 256 __________O___ -1 21.8000 123.700 4 11 0
1926226N18125 1926 32 WP MM NOT_NAMED 1926-08-15 00:00:00 NR 22.1821 123.698 main 256 237 __________P___ -1 22.1821 123.698 4 12 0
1926226N18125 1926 32 WP MM NOT_NAMED 1926-08-15 03:00:00 NR 22.7557 123.723 main 237 226 __________P___ -1 22.7557 123.723 4 11 0
1926226N18125 1926 32 WP MM NOT_NAMED 1926-08-15 06:00:00 NR 23.3133 123.727 main 226 198 __________P___ -1 23.3133 123.727 4 11 357
1926226N18125 1926 32 WP MM NOT_NAMED 1926-08-15 09:00:00 NR 23.8365 123.653 main 198 181 __________P___ -1 23.8365 123.653 4 11 350
1926226N18125 1926 32 WP MM NOT_NAMED 1926-08-15 10:00:00 NR 24.0000 123.600 main 181 153 __________O___ -1 24.0000 123.600 4 10 338
1926226N18125 1926 32 WP MM NOT_NAMED 1926-08-15 12:00:00 NR 24.3082 123.444 main 153 115 __________P___ -1 24.3082 123.444 4 10 328
1926226N18125 1926 32 WP MM NOT_NAMED 1926-08-15 15:00:00 NR 24.7301 123.101 main 115 71 __________P___ -1 24.7301 123.101 4 11 319
1926226N18125 1926 32 WP MM NOT_NAMED 1926-08-15 18:00:00 NR 25.1162 122.664 main 71 49 __________P___ -1 25.1162 122.664 4 11 312
1926226N18125 1926 32 WP MM NOT_NAMED 1926-08-15 21:00:00 NR 25.4807 122.170 main 59 56 __________P___ -1 25.4807 122.170 4 12 309
1926226N18125 1926 32 WP MM NOT_NAMED 1926-08-15 22:00:00 NR 25.6000 122.000 main 60 __________O___ -1 25.6000 122.000 4 12 308

デジタル台風データ・検索

IBTrACS Databaseについて

本データベースは、米国NOAAが公開する1842年以降の世界の熱帯低気圧のベストトラックデータアーカイブInternational Best Track Archive for Climate Stewardship (IBTrACS)を、ウェブで閲覧しやすい形式に変換したものです。

最終更新日:2021-10-19